Time;durP1;ratioP1;P1;durP2;ratioP2;P2;SDS_P1;SDS_P2;PMS_P1;PMS_P2;Temp;Humidity;BMP_temperature;BMP_pressure;BME280_temperature;BME280_humidity;BME280_pressure;Samples;Min_cycle;Max_cycle;Signal;HPM_P1;HPM_P2
2021/08/05 00:01:28;;;;;;;3.70;2.80;;;;;;;17.47;61.74;96953.20;126959;1092;62584;-55
2021/08/05 00:03:54;;;;;;;3.50;2.90;;;;;;;17.45;61.90;96952.56;127097;1092;62621;-57
2021/08/05 00:06:21;;;;;;;3.73;2.90;;;;;;;17.42;62.04;96947.59;127034;1092;62620;-54
2021/08/05 00:08:48;;;;;;;4.20;2.93;;;;;;;17.40;61.86;96939.84;126872;1092;62699;-58
2021/08/05 00:11:15;;;;;;;3.37;2.67;;;;;;;17.37;62.00;96947.27;126884;1092;62754;-54
2021/08/05 00:13:42;;;;;;;5.60;3.20;;;;;;;17.34;62.16;96944.98;127106;1092;62612;-52
2021/08/05 00:16:09;;;;;;;4.00;3.13;;;;;;;17.31;62.21;96941.66;127063;1092;62684;-56
2021/08/05 00:18:36;;;;;;;3.90;3.03;;;;;;;17.30;62.27;96950.59;126991;1092;62681;-55
2021/08/05 00:21:03;;;;;;;4.67;2.97;;;;;;;17.28;62.33;96957.83;127011;1092;62690;-58
2021/08/05 00:23:30;;;;;;;4.90;3.13;;;;;;;17.26;62.28;96948.44;127032;1092;62707;-55
2021/08/05 00:25:57;;;;;;;3.80;2.67;;;;;;;17.25;62.54;96957.36;127104;1092;62585;-54
2021/08/05 00:28:24;;;;;;;4.53;3.13;;;;;;;17.22;62.60;96958.50;126951;1092;62581;-52
2021/08/05 00:30:50;;;;;;;3.77;3.00;;;;;;;17.21;62.45;96956.03;127072;1092;62628;-53
2021/08/05 00:33:18;;;;;;;3.57;2.90;;;;;;;17.19;62.46;96961.45;126964;1092;63333;-52
2021/08/05 00:35:45;;;;;;;4.27;2.93;;;;;;;17.17;62.68;96955.52;126998;1092;62711;-55
2021/08/05 00:38:12;;;;;;;4.15;2.85;;;;;;;17.15;62.64;96952.23;127028;1092;62642;-50
2021/08/05 00:40:39;;;;;;;4.73;3.40;;;;;;;17.14;62.67;96955.84;127101;1092;62585;-56
2021/08/05 00:43:06;;;;;;;4.07;3.40;;;;;;;17.12;62.54;96960.47;126910;1092;62605;-56
2021/08/05 00:45:33;;;;;;;3.25;2.70;;;;;;;17.11;62.89;96958.01;126881;1092;62625;-50
2021/08/05 00:48:00;;;;;;;4.67;3.50;;;;;;;17.08;63.03;96961.78;126961;1092;62703;-51
2021/08/05 00:50:28;;;;;;;3.90;3.23;;;;;;;17.05;62.87;96952.39;126948;1092;62616;-53
2021/08/05 00:52:55;;;;;;;3.30;2.90;;;;;;;17.04;63.16;96956.00;126907;1092;62561;-54
2021/08/05 00:55:22;;;;;;;4.27;3.00;;;;;;;17.02;62.98;96950.06;126907;1092;62655;-55
2021/08/05 00:57:49;;;;;;;4.67;2.97;;;;;;;17.01;63.04;96955.52;126923;1092;62703;-48
2021/08/05 01:00:16;;;;;;;4.20;3.23;;;;;;;16.97;63.15;96948.91;126936;1092;62655;-51
2021/08/05 01:02:45;;;;;;;4.35;3.40;;;;;;;16.95;63.09;96946.41;126859;1092;62609;-50
2021/08/05 01:05:12;;;;;;;3.98;3.50;;;;;;;16.94;63.35;96944.77;126961;1092;62619;-52
2021/08/05 01:07:48;;;;;;;3.80;3.10;;;;;;;16.93;63.21;96947.58;126898;1092;62613;-54
2021/08/05 01:10:54;;;;;;;3.60;3.23;;;;;;;16.91;63.37;96945.08;127023;1092;62593;-57
2021/08/05 01:13:30;;;;;;;3.73;3.20;;;;;;;16.91;63.36;96933.70;127079;1092;62617;-49
2021/08/05 01:15:57;;;;;;;3.60;2.90;;;;;;;16.90;63.30;96929.41;127097;1092;63008;-55
2021/08/05 01:18:29;;;;;;;4.57;3.27;;;;;;;16.87;63.40;96930.58;126896;1092;62604;-51
2021/08/05 01:20:57;;;;;;;4.30;2.93;;;;;;;16.87;63.59;96927.09;127016;1092;62645;-53
2021/08/05 01:23:30;;;;;;;3.47;3.17;;;;;;;16.85;63.51;96918.52;126957;1092;62639;-47
2021/08/05 01:26:15;;;;;;;4.17;3.77;;;;;;;16.84;63.69;96906.31;126933;1092;63028;-57
2021/08/05 01:28:44;;;;;;;4.27;3.40;;;;;;;16.83;63.63;96897.58;126901;1092;62616;-50
2021/08/05 01:31:11;;;;;;;4.60;3.10;;;;;;;16.83;63.71;96899.39;126936;1092;62608;-51
2021/08/05 01:33:38;;;;;;;5.37;3.37;;;;;;;16.81;63.75;96891.61;126928;1092;62616;-55
2021/08/05 01:36:05;;;;;;;5.07;3.47;;;;;;;16.80;63.87;96901.35;126972;1092;62710;-56
2021/08/05 01:38:33;;;;;;;4.20;3.27;;;;;;;16.79;63.71;96904.98;127014;1092;62636;-54
2021/08/05 01:41:04;;;;;;;4.83;3.73;;;;;;;16.77;63.88;96904.30;127111;1092;62683;-51
2021/08/05 01:43:32;;;;;;;3.97;3.33;;;;;;;16.77;63.82;96896.39;127059;1092;62617;-49
2021/08/05 01:45:59;;;;;;;4.50;3.20;;;;;;;16.75;63.92;96887.00;126977;1092;62649;-53
2021/08/05 01:48:26;;;;;;;4.23;3.43;;;;;;;16.75;63.98;96893.09;127055;1092;62705;-53
2021/08/05 01:50:53;;;;;;;4.80;3.40;;;;;;;16.73;64.01;96884.53;126953;1092;62585;-53
2021/08/05 01:53:20;;;;;;;4.30;3.90;;;;;;;16.73;64.14;96881.89;127039;1092;62588;-51
2021/08/05 01:55:47;;;;;;;3.87;3.17;;;;;;;16.72;64.02;96877.58;127034;1092;62670;-56
2021/08/05 01:58:14;;;;;;;4.53;3.33;;;;;;;16.71;64.18;96870.63;126884;1092;62629;-56
2021/08/05 02:00:41;;;;;;;3.43;3.13;;;;;;;16.70;64.06;96858.42;126873;1092;63022;-57
2021/08/05 02:03:09;;;;;;;3.93;3.23;;;;;;;16.70;64.12;96868.98;126915;1092;62687;-56
2021/08/05 02:06:02;;;;;;;3.70;3.07;;;;;;;16.69;64.17;96856.78;127016;1092;62636;-56
2021/08/05 02:08:46;;;;;;;3.40;2.97;;;;;;;16.70;64.12;96850.51;126877;1092;62621;-55
2021/08/05 02:11:13;;;;;;;3.87;3.10;;;;;;;16.70;64.18;96841.77;127005;1092;62632;-56
2021/08/05 02:13:40;;;;;;;3.60;3.20;;;;;;;16.70;64.30;96839.95;126827;1092;62694;-47
2021/08/05 02:16:10;;;;;;;3.73;3.23;;;;;;;16.70;64.22;96841.77;126897;1092;63060;-52
2021/08/05 02:18:39;;;;;;;3.90;3.07;;;;;;;16.71;64.68;96846.05;126995;1092;62572;-58
2021/08/05 02:21:06;;;;;;;3.93;3.00;;;;;;;16.69;64.45;96840.13;126963;1092;63000;-57
2021/08/05 02:23:33;;;;;;;5.60;3.17;;;;;;;16.67;64.27;96827.07;127125;1091;63108;-55
2021/08/05 02:26:00;;;;;;;3.40;3.10;;;;;;;16.69;64.25;96834.84;127012;1092;62692;-58
2021/08/05 02:28:27;;;;;;;3.97;3.07;;;;;;;16.68;64.53;96828.72;127063;1092;62604;-58
2021/08/05 02:30:54;;;;;;;3.70;3.27;;;;;;;16.69;64.45;96824.29;126982;1092;62625;-54
2021/08/05 02:33:21;;;;;;;3.63;3.23;;;;;;;16.71;64.48;96832.86;126922;1092;62640;-53
2021/08/05 02:35:48;;;;;;;3.73;3.07;;;;;;;16.72;64.46;96837.99;126885;1092;62654;-51
2021/08/05 02:38:15;;;;;;;3.97;3.47;;;;;;;16.72;64.43;96834.53;126844;1092;62620;-48
2021/08/05 02:40:43;;;;;;;4.07;3.43;;;;;;;16.73;64.63;96831.75;126905;1092;62575;-52
2021/08/05 02:43:10;;;;;;;4.40;3.47;;;;;;;16.75;64.69;96831.58;127121;1092;62620;-56
2021/08/05 02:45:38;;;;;;;4.07;3.37;;;;;;;16.76;64.73;96831.41;127058;1092;62571;-55
2021/08/05 02:48:06;;;;;;;3.70;3.30;;;;;;;16.76;64.81;96830.58;126973;1092;62585;-53
2021/08/05 02:50:33;;;;;;;3.77;3.33;;;;;;;16.76;64.75;96839.32;127060;1092;62690;-52
2021/08/05 02:53:01;;;;;;;3.50;3.20;;;;;;;16.76;64.81;96822.66;127080;1092;62758;-52
2021/08/05 02:55:28;;;;;;;4.43;3.83;;;;;;;16.76;64.61;96825.30;126945;1092;63085;-53
2021/08/05 02:57:56;;;;;;;4.23;3.53;;;;;;;16.74;64.80;96822.83;127102;1091;62613;-53
2021/08/05 03:00:23;;;;;;;4.43;3.60;;;;;;;16.74;64.65;96817.55;127099;1092;62606;-52
2021/08/05 03:02:50;;;;;;;5.10;3.70;;;;;;;16.73;64.63;96815.91;127084;1090;62771;-52
2021/08/05 03:05:17;;;;;;;4.50;3.53;;;;;;;16.72;64.75;96814.23;127110;1092;62706;-57
2021/08/05 03:07:44;;;;;;;5.07;4.07;;;;;;;16.71;64.61;96817.84;126925;1092;62573;-48
2021/08/05 03:10:13;;;;;;;5.10;3.33;;;;;;;16.70;64.83;96821.48;126895;1092;62617;-56
2021/08/05 03:12:40;;;;;;;5.90;4.17;;;;;;;16.68;64.91;96818.16;126909;1092;62617;-58
2021/08/05 03:15:08;;;;;;;6.27;4.10;;;;;;;16.67;64.96;96819.16;126864;1092;62625;-56
2021/08/05 03:17:35;;;;;;;4.80;3.63;;;;;;;16.66;65.09;96812.23;126878;1092;62566;-48
2021/08/05 03:20:03;;;;;;;5.90;4.53;;;;;;;16.66;65.00;96817.52;126862;1092;62585;-57
2021/08/05 03:22:30;;;;;;;5.60;3.83;;;;;;;16.66;65.15;96814.05;126858;1092;62588;-57
2021/08/05 03:24:57;;;;;;;6.07;4.10;;;;;;;16.65;65.18;96823.78;126857;1091;62614;-57
2021/08/05 03:27:24;;;;;;;5.45;4.00;;;;;;;16.65;65.33;96818.51;126936;1092;62699;-49
2021/08/05 03:29:51;;;;;;;6.07;4.10;;;;;;;16.65;65.26;96815.05;127019;1092;62620;-58
2021/08/05 03:32:18;;;;;;;5.13;4.47;;;;;;;16.67;65.45;96807.78;127119;1092;62602;-58
2021/08/05 03:34:45;;;;;;;6.70;4.33;;;;;;;16.69;65.46;96803.18;127082;1092;62639;-52
2021/08/05 03:37:12;;;;;;;5.90;4.83;;;;;;;16.70;65.44;96805.64;126926;1092;62617;-52
2021/08/05 03:39:39;;;;;;;6.03;4.50;;;;;;;16.72;65.42;96790.48;126941;1092;62680;-56
2021/08/05 03:42:05;;;;;;;6.07;4.50;;;;;;;16.75;65.64;96790.17;126859;1092;62714;-59
2021/08/05 03:44:32;;;;;;;5.73;4.50;;;;;;;16.79;65.57;96782.75;126949;1092;62613;-56
2021/08/05 03:46:59;;;;;;;9.93;6.67;;;;;;;16.83;65.66;96770.05;126939;1092;62639;-58
2021/08/05 03:49:27;;;;;;;6.77;5.53;;;;;;;16.87;65.53;96773.98;127012;1090;62625;-50
2021/08/05 03:51:53;;;;;;;5.80;4.73;;;;;;;16.91;65.52;96775.30;127098;1092;62713;-50
2021/08/05 03:54:20;;;;;;;6.00;5.03;;;;;;;16.95;65.60;96771.34;127049;1092;62728;-50
2021/08/05 03:56:47;;;;;;;5.80;4.83;;;;;;;17.01;65.63;96766.23;127067;1092;62686;-49
2021/08/05 03:59:14;;;;;;;8.60;5.90;;;;;;;17.05;65.57;96764.92;127034;1092;62638;-51
2021/08/05 04:01:41;;;;;;;6.30;5.00;;;;;;;17.11;65.57;96765.23;126921;1092;62616;-59
2021/08/05 04:04:08;;;;;;;7.07;5.10;;;;;;;17.15;65.33;96751.53;127034;1092;62687;-58
2021/08/05 04:06:35;;;;;;;7.45;5.40;;;;;;;17.21;65.45;96766.69;127041;1092;62722;-49
2021/08/05 04:09:02;;;;;;;6.13;4.50;;;;;;;17.27;65.47;96762.55;126929;1092;62629;-58
2021/08/05 04:11:29;;;;;;;8.00;5.05;;;;;;;17.33;65.28;96759.22;126861;1092;62562;-56
2021/08/05 04:13:56;;;;;;;6.87;4.97;;;;;;;17.40;65.56;96748.81;126961;1092;62642;-58
2021/08/05 04:16:23;;;;;;;8.23;5.90;;;;;;;17.47;65.05;96755.05;127065;1092;62625;-54
2021/08/05 04:18:50;;;;;;;6.77;5.47;;;;;;;17.52;65.13;96752.74;126952;1092;62770;-57
2021/08/05 04:21:17;;;;;;;8.40;5.43;;;;;;;17.62;65.12;96755.18;127010;1092;62585;-59
2021/08/05 04:23:44;;;;;;;7.53;5.13;;;;;;;17.69;64.89;96750.84;127045;1092;62642;-56
2021/08/05 04:26:11;;;;;;;6.53;4.80;;;;;;;17.76;64.80;96747.38;127037;1092;62648;-53
2021/08/05 04:28:38;;;;;;;6.03;4.87;;;;;;;17.81;64.78;96742.39;126846;1092;62713;-56
2021/08/05 04:31:05;;;;;;;6.97;4.77;;;;;;;17.89;64.61;96744.19;126897;1092;62632;-56
2021/08/05 04:33:32;;;;;;;5.97;4.47;;;;;;;17.95;64.41;96732.08;127009;1092;62625;-57
2021/08/05 04:35:58;;;;;;;7.15;4.30;;;;;;;18.00;64.50;96729.73;126994;1092;62572;-54
2021/08/05 04:38:25;;;;;;;6.07;4.23;;;;;;;18.06;64.25;96742.25;126947;1092;62629;-53
2021/08/05 04:40:52;;;;;;;5.50;4.53;;;;;;;18.12;64.15;96740.72;126952;1092;62707;-58
2021/08/05 04:43:19;;;;;;;5.50;4.40;;;;;;;18.15;64.08;96733.27;127108;1092;62789;-57
2021/08/05 04:45:46;;;;;;;6.33;4.20;;;;;;;18.21;64.05;96731.73;127032;1092;62683;-58
2021/08/05 04:48:13;;;;;;;5.93;4.33;;;;;;;18.25;63.80;96736.50;126938;1092;62580;-54
2021/08/05 04:50:41;;;;;;;6.27;4.27;;;;;;;18.31;63.66;96738.47;126880;1092;62689;-53
2021/08/05 04:53:09;;;;;;;5.75;4.05;;;;;;;18.37;63.64;96728.17;126874;1092;62620;-56
2021/08/05 04:55:36;;;;;;;5.77;4.43;;;;;;;18.41;63.38;96738.23;126905;1092;62632;-59
2021/08/05 04:58:06;;;;;;;5.70;4.13;;;;;;;18.47;63.36;96728.75;126869;1092;62572;-54
2021/08/05 05:00:38;;;;;;;4.17;3.77;;;;;;;18.52;63.21;96726.39;127025;1092;62655;-59
2021/08/05 05:03:05;;;;;;;5.67;4.30;;;;;;;18.55;62.92;96729.52;127092;1092;62636;-58
2021/08/05 05:05:33;;;;;;;5.27;4.40;;;;;;;18.58;62.80;96726.52;127114;1092;62687;-58
2021/08/05 05:08:19;;;;;;;5.00;4.23;;;;;;;18.61;62.82;96720.03;127012;1091;62617;-59
2021/08/05 05:10:47;;;;;;;7.13;4.07;;;;;;;18.67;62.87;96716.66;126972;1092;62616;-57
2021/08/05 05:13:14;;;;;;;7.13;4.63;;;;;;;18.73;62.55;96713.34;127040;1092;62572;-56
2021/08/05 05:15:42;;;;;;;5.80;4.20;;;;;;;18.80;62.44;96710.79;127067;1092;62601;-59
2021/08/05 05:18:09;;;;;;;6.77;5.47;;;;;;;18.86;62.25;96698.65;126993;1092;62562;-55
2021/08/05 05:20:36;;;;;;;6.10;4.90;;;;;;;18.91;62.03;96704.25;127012;1092;62569;-56
2021/08/05 05:23:04;;;;;;;6.15;4.40;;;;;;;18.96;62.02;96700.05;127112;1092;62686;-61
2021/08/05 05:25:31;;;;;;;7.43;5.63;;;;;;;19.04;61.88;96699.13;126975;1092;62568;-53
2021/08/05 05:27:58;;;;;;;6.77;4.93;;;;;;;19.11;61.42;96694.76;126893;1092;62593;-60
2021/08/05 05:30:25;;;;;;;8.77;5.47;;;;;;;19.16;61.36;96695.03;126896;1092;62687;-56
2021/08/05 05:32:52;;;;;;;7.35;5.70;;;;;;;19.22;61.30;96683.69;126962;1092;62771;-62
2021/08/05 05:35:20;;;;;;;7.53;5.43;;;;;;;19.27;61.36;96675.20;126891;1092;62593;-60
2021/08/05 05:37:48;;;;;;;6.23;4.90;;;;;;;19.33;61.10;96680.60;126994;1092;62604;-57
2021/08/05 05:40:15;;;;;;;7.53;5.50;;;;;;;19.42;61.02;96667.26;127032;1092;62686;-54
2021/08/05 05:42:43;;;;;;;6.40;5.03;;;;;;;19.49;60.95;96662.84;126978;1092;62700;-56
2021/08/05 05:45:11;;;;;;;6.53;4.57;;;;;;;19.58;60.79;96656.42;127012;1092;62786;-56
2021/08/05 05:47:37;;;;;;;7.40;5.30;;;;;;;19.68;60.44;96648.20;127014;1092;62608;-56
2021/08/05 05:50:06;;;;;;;7.53;5.00;;;;;;;19.77;60.60;96645.25;127127;1090;62627;-54
2021/08/05 05:52:32;;;;;;;6.65;4.85;;;;;;;19.86;60.42;96637.19;126975;1092;62620;-58
2021/08/05 05:54:59;;;;;;;5.77;4.67;;;;;;;19.95;60.29;96634.22;126962;1092;62622;-58
2021/08/05 05:57:26;;;;;;;6.60;4.60;;;;;;;20.02;59.91;96642.26;126864;1092;62716;-57
2021/08/05 05:59:53;;;;;;;6.17;4.97;;;;;;;20.09;59.92;96632.52;126956;1092;62645;-51
2021/08/05 06:02:20;;;;;;;5.83;4.53;;;;;;;20.18;59.83;96639.33;126919;1092;62683;-61
2021/08/05 06:04:47;;;;;;;5.27;4.13;;;;;;;20.26;59.58;96633.91;126894;1092;62678;-59
2021/08/05 06:07:14;;;;;;;6.20;4.60;;;;;;;20.35;59.46;96634.59;126868;1092;62616;-61
2021/08/05 06:09:41;;;;;;;5.83;4.27;;;;;;;20.43;59.34;96623.00;126917;1092;62725;-60
2021/08/05 06:12:08;;;;;;;7.00;3.93;;;;;;;20.53;59.28;96612.92;126964;1092;62639;-55
2021/08/05 06:14:35;;;;;;;5.50;4.17;;;;;;;20.62;59.04;96603.80;126891;1092;62576;-60
2021/08/05 06:17:02;;;;;;;5.43;3.73;;;;;;;20.70;58.75;96603.62;126967;1092;62632;-61
2021/08/05 06:19:29;;;;;;;5.83;4.20;;;;;;;20.79;58.74;96607.77;127004;1092;62722;-56
2021/08/05 06:21:58;;;;;;;5.27;3.73;;;;;;;20.89;58.62;96606.59;126946;1092;62584;-58
2021/08/05 06:24:26;;;;;;;5.03;3.77;;;;;;;21.00;58.63;96603.41;126957;1092;62620;-52
2021/08/05 06:26:53;;;;;;;5.10;3.83;;;;;;;21.09;58.26;96587.09;126880;1091;62585;-51
2021/08/05 06:29:21;;;;;;;5.37;3.90;;;;;;;21.20;58.06;96590.20;126863;1092;62630;-54
2021/08/05 06:31:48;;;;;;;4.75;3.65;;;;;;;21.31;57.89;96585.19;126862;1092;62748;-58
2021/08/05 06:34:15;;;;;;;4.13;3.73;;;;;;;21.41;57.55;96583.98;126905;1092;62738;-58
2021/08/05 06:36:42;;;;;;;4.73;3.57;;;;;;;21.52;57.77;96578.08;126871;1092;62990;-48
2021/08/05 06:39:09;;;;;;;4.83;3.63;;;;;;;21.62;57.15;96583.83;126885;1092;62613;-58
2021/08/05 06:41:36;;;;;;;5.43;3.30;;;;;;;21.73;57.09;96569.95;126934;1092;62636;-51
2021/08/05 06:44:03;;;;;;;4.90;3.37;;;;;;;21.84;56.68;96555.23;126901;1092;62697;-58
2021/08/05 06:46:30;;;;;;;5.00;3.50;;;;;;;21.94;56.38;96550.32;126942;1092;62710;-51
2021/08/05 06:48:57;;;;;;;4.73;3.40;;;;;;;22.05;56.16;96552.39;126879;1092;62630;-57
2021/08/05 06:51:24;;;;;;;5.07;3.80;;;;;;;22.16;56.23;96548.31;126889;1092;62630;-55
2021/08/05 06:53:52;;;;;;;4.63;3.53;;;;;;;22.27;55.71;96552.20;126943;1092;62683;-48
2021/08/05 06:56:19;;;;;;;4.23;2.97;;;;;;;22.36;55.71;96551.77;127058;1092;62652;-60
2021/08/05 06:58:46;;;;;;;4.47;3.40;;;;;;;22.47;55.44;96554.86;127018;1092;62629;-50
2021/08/05 07:01:13;;;;;;;4.03;3.20;;;;;;;22.58;55.25;96548.89;126989;1092;62605;-56
2021/08/05 07:03:39;;;;;;;3.63;3.23;;;;;;;22.70;55.07;96541.91;127081;1091;62625;-47
2021/08/05 07:06:06;;;;;;;5.53;3.17;;;;;;;22.78;54.69;96538.99;126971;1092;62617;-46
2021/08/05 07:08:35;;;;;;;4.13;3.73;;;;;;;22.88;54.52;96534.06;127029;1090;62670;-57
2021/08/05 07:11:02;;;;;;;4.83;3.20;;;;;;;23.01;54.39;96540.39;126898;1092;62652;-58
2021/08/05 07:13:29;;;;;;;3.93;3.30;;;;;;;23.10;54.26;96531.13;127029;1092;62616;-58
2021/08/05 07:15:56;;;;;;;4.53;3.50;;;;;;;23.23;53.73;96536.41;127050;1092;62620;-52
2021/08/05 07:18:23;;;;;;;4.47;3.10;;;;;;;23.32;53.35;96524.46;127095;1092;62623;-49
2021/08/05 07:20:51;;;;;;;3.50;2.73;;;;;;;23.44;53.05;96519.28;126931;1092;63021;-55
2021/08/05 07:23:17;;;;;;;3.70;3.10;;;;;;;23.58;52.97;96522.69;127110;1092;62715;-54
2021/08/05 07:25:45;;;;;;;4.07;3.10;;;;;;;23.69;52.75;96522.02;127000;1092;62652;-58
2021/08/05 07:28:12;;;;;;;4.03;2.90;;;;;;;23.80;52.49;96516.01;127005;1092;62630;-48
2021/08/05 07:30:39;;;;;;;4.40;3.10;;;;;;;23.92;52.06;96515.30;127030;1092;62623;-57
2021/08/05 07:33:06;;;;;;;4.27;2.57;;;;;;;24.02;51.87;96513.77;127071;1092;62693;-57
2021/08/05 07:35:33;;;;;;;3.20;2.90;;;;;;;24.14;51.53;96506.69;127090;1092;62629;-51
2021/08/05 07:38:00;;;;;;;3.57;3.27;;;;;;;24.25;51.62;96501.66;127018;1092;62641;-52
2021/08/05 07:40:27;;;;;;;5.30;3.30;;;;;;;24.36;51.40;96507.14;126876;1092;62655;-48
2021/08/05 07:42:54;;;;;;;3.67;3.23;;;;;;;24.46;50.93;96498.62;126837;1092;62616;-54
2021/08/05 07:45:21;;;;;;;3.87;2.83;;;;;;;24.58;50.88;96496.83;126855;1092;62621;-57
2021/08/05 07:47:48;;;;;;;3.50;2.87;;;;;;;24.69;50.63;96495.30;126994;1092;62707;-50
2021/08/05 07:50:15;;;;;;;3.20;2.83;;;;;;;24.80;50.42;96481.17;126975;1092;62632;-50
2021/08/05 07:52:42;;;;;;;3.95;2.80;;;;;;;24.92;50.17;96475.91;126922;1092;62565;-55
2021/08/05 07:55:09;;;;;;;3.80;2.90;;;;;;;25.05;49.57;96472.22;126869;1092;62611;-54
2021/08/05 07:57:36;;;;;;;3.60;2.80;;;;;;;25.16;49.26;96468.83;126885;1092;62633;-58
2021/08/05 08:00:05;;;;;;;3.57;3.27;;;;;;;25.31;49.04;96466.55;127071;1092;62730;-55
2021/08/05 08:02:32;;;;;;;3.33;2.88;;;;;;;25.44;48.51;96462.08;126939;1092;62632;-57
2021/08/05 08:04:59;;;;;;;4.20;2.87;;;;;;;25.57;48.45;96456.53;127016;1092;62665;-59
2021/08/05 08:07:26;;;;;;;3.40;2.80;;;;;;;25.67;48.10;96448.75;127093;1091;62620;-48
2021/08/05 08:09:53;;;;;;;3.40;2.73;;;;;;;25.79;47.98;96443.42;127069;1092;62647;-57
2021/08/05 08:12:20;;;;;;;3.70;3.10;;;;;;;25.96;47.66;96454.28;126940;1092;62613;-49
2021/08/05 08:14:47;;;;;;;4.10;2.80;;;;;;;26.08;47.30;96447.89;126896;1092;62636;-52
2021/08/05 08:17:14;;;;;;;5.13;3.37;;;;;;;26.27;47.21;96445.90;127006;1092;62633;-48
2021/08/05 08:19:41;;;;;;;3.63;3.13;;;;;;;26.50;46.86;96438.92;126994;1092;62620;-55
2021/08/05 08:22:09;;;;;;;4.87;3.17;;;;;;;26.71;46.15;96437.46;126869;1092;62616;-48
2021/08/05 08:24:36;;;;;;;4.07;3.27;;;;;;;26.95;45.99;96435.52;126985;1092;63089;-49
2021/08/05 08:27:03;;;;;;;3.60;3.07;;;;;;;27.13;45.73;96430.00;126878;1092;62690;-51
2021/08/05 08:29:31;;;;;;;3.87;2.90;;;;;;;27.31;45.53;96418.25;126855;1092;62569;-50
2021/08/05 08:31:58;;;;;;;3.40;3.07;;;;;;;27.50;45.20;96406.27;126916;1091;62655;-54
2021/08/05 08:34:25;;;;;;;3.13;2.83;;;;;;;27.69;44.96;96393.42;126854;1092;62632;-48
2021/08/05 08:36:51;;;;;;;4.27;3.17;;;;;;;27.91;44.69;96402.36;126959;1092;62645;-57
2021/08/05 08:39:22;;;;;;;3.50;3.07;;;;;;;28.17;43.99;96398.18;127062;1092;62666;-52
2021/08/05 08:41:49;;;;;;;3.70;2.97;;;;;;;28.43;43.71;96395.88;126928;1092;62620;-58
2021/08/05 08:44:16;;;;;;;4.03;3.40;;;;;;;28.57;43.35;96404.38;126998;1092;63022;-50
2021/08/05 08:46:43;;;;;;;6.23;3.97;;;;;;;28.67;42.86;96394.56;126981;1092;62605;-54
2021/08/05 08:49:10;;;;;;;5.03;3.50;;;;;;;28.77;42.46;96393.86;126901;1092;62603;-55
2021/08/05 08:51:37;;;;;;;3.97;3.23;;;;;;;28.82;42.29;96396.60;126868;1092;63070;-49
2021/08/05 08:54:08;;;;;;;4.20;3.00;;;;;;;28.87;42.17;96399.34;126990;1092;62617;-47
2021/08/05 08:56:37;;;;;;;5.80;3.20;;;;;;;28.91;41.98;96400.47;126929;1092;62608;-50
2021/08/05 08:59:04;;;;;;;3.60;3.30;;;;;;;28.95;41.90;96395.44;126896;1092;62572;-58
2021/08/05 09:01:30;;;;;;;3.67;3.03;;;;;;;28.98;41.70;96415.63;126902;1092;63198;-58
2021/08/05 09:03:57;;;;;;;4.30;3.07;;;;;;;29.03;41.72;96413.02;126908;1092;62617;-56
2021/08/05 09:06:24;;;;;;;3.87;3.37;;;;;;;29.10;41.47;96408.23;126902;1092;62602;-51
2021/08/05 09:08:51;;;;;;;4.00;3.40;;;;;;;29.18;41.19;96421.23;127066;1092;62569;-54
2021/08/05 09:11:19;;;;;;;3.47;3.10;;;;;;;29.26;41.34;96401.95;127037;1092;62616;-49
2021/08/05 09:13:46;;;;;;;3.80;3.20;;;;;;;29.34;40.87;96392.58;127048;1092;62719;-48
2021/08/05 09:16:23;;;;;;;4.10;3.53;;;;;;;29.38;40.94;96399.08;127107;1090;62762;-57
2021/08/05 09:18:50;;;;;;;4.97;4.10;;;;;;;29.45;40.84;96382.74;126875;1092;62652;-54
2021/08/05 09:21:25;;;;;;;5.53;3.33;;;;;;;29.53;40.51;96382.25;126951;1092;62613;-53
2021/08/05 09:24:04;;;;;;;4.33;3.77;;;;;;;29.58;40.37;96377.77;126989;1092;62671;-55
2021/08/05 09:26:42;;;;;;;5.15;3.60;;;;;;;29.61;40.43;96379.13;127093;1092;62624;-53
2021/08/05 09:29:10;;;;;;;5.17;3.70;;;;;;;29.61;40.35;96358.39;126970;1092;62616;-57
2021/08/05 09:31:47;;;;;;;4.33;3.93;;;;;;;29.61;40.00;96358.39;126947;1092;62619;-49
2021/08/05 09:34:16;;;;;;;4.23;3.53;;;;;;;29.63;40.38;96380.50;126949;1092;62616;-49
2021/08/05 09:36:44;;;;;;;3.83;3.40;;;;;;;29.65;40.44;96382.92;126914;1092;62660;-49
2021/08/05 09:39:22;;;;;;;4.77;4.23;;;;;;;29.68;40.48;96387.80;126937;1092;62768;-52
2021/08/05 09:41:56;;;;;;;3.80;3.50;;;;;;;29.71;40.21;96376.50;127026;1092;62619;-57
2021/08/05 09:44:24;;;;;;;3.95;3.50;;;;;;;29.77;40.12;96370.10;126969;1092;62642;-59
2021/08/05 09:47:04;;;;;;;5.30;3.93;;;;;;;29.84;39.91;96356.39;127025;1092;62655;-50
2021/08/05 09:49:34;;;;;;;4.57;3.77;;;;;;;29.89;39.80;96349.16;127085;1092;62652;-58
2021/08/05 09:52:02;;;;;;;4.10;3.70;;;;;;;29.94;39.58;96345.68;127065;1092;62700;-55
2021/08/05 09:54:59;;;;;;;4.85;4.00;;;;;;;29.97;39.38;96358.64;127050;1092;62690;-50
2021/08/05 09:57:30;;;;;;;4.45;3.70;;;;;;;29.95;39.34;96360.77;126968;1092;62620;-54
2021/08/05 10:00:04;;;;;;;4.80;4.30;;;;;;;29.92;39.25;96378.27;126907;1092;62630;-56
2021/08/05 10:02:41;;;;;;;4.27;3.87;;;;;;;29.86;39.26;96379.33;127022;1092;63031;-48
2021/08/05 10:05:15;;;;;;;4.37;3.40;;;;;;;29.81;39.30;96381.98;127060;1092;62719;-54
2021/08/05 10:07:42;;;;;;;5.30;4.15;;;;;;;29.76;39.44;96383.80;127098;1092;62683;-49
2021/08/05 10:10:09;;;;;;;4.50;3.70;;;;;;;29.63;39.45;96377.80;127075;1092;62641;-53
2021/08/05 10:12:37;;;;;;;6.03;3.77;;;;;;;29.53;39.55;96374.17;126926;1092;63063;-52
2021/08/05 10:15:09;;;;;;;3.83;3.47;;;;;;;29.42;39.61;96352.55;126882;1092;62613;-51
2021/08/05 10:17:36;;;;;;;4.30;3.67;;;;;;;29.31;39.77;96356.25;126895;1092;62597;-50
2021/08/05 10:20:11;;;;;;;4.63;4.00;;;;;;;29.21;39.77;96349.94;126928;1092;62616;-58
2021/08/05 10:22:38;;;;;;;5.13;3.83;;;;;;;29.09;40.02;96336.66;127047;1092;62616;-50
2021/08/05 10:25:11;;;;;;;4.20;3.63;;;;;;;28.99;40.03;96348.14;127109;1092;62613;-56
2021/08/05 10:27:38;;;;;;;4.47;3.60;;;;;;;28.93;40.24;96363.39;126961;1092;62700;-53
2021/08/05 10:30:13;;;;;;;5.17;4.27;;;;;;;28.92;40.31;96369.81;127976;1092;62569;-56
2021/08/05 10:32:40;;;;;;;4.37;3.50;;;;;;;29.02;40.44;96362.95;127640;1092;62615;-50
2021/08/05 10:35:11;;;;;;;4.57;4.03;;;;;;;29.12;40.56;96344.20;126957;1092;62621;-54
2021/08/05 10:37:38;;;;;;;4.90;3.87;;;;;;;29.22;40.48;96357.78;126939;1092;62612;-52
2021/08/05 10:40:06;;;;;;;5.77;4.50;;;;;;;29.31;40.50;96356.25;126957;1092;62667;-52
2021/08/05 10:42:33;;;;;;;4.97;4.10;;;;;;;29.38;40.41;96356.02;127008;1092;62638;-57
2021/08/05 10:45:01;;;;;;;4.73;4.13;;;;;;;29.39;40.36;96347.67;126936;1092;62632;-50
2021/08/05 10:47:29;;;;;;;6.23;4.37;;;;;;;29.40;40.32;96340.44;126932;1092;62602;-51
2021/08/05 10:50:03;;;;;;;5.17;4.33;;;;;;;29.39;40.24;96330.72;126896;1092;62659;-50
2021/08/05 10:52:36;;;;;;;5.40;4.00;;;;;;;29.36;40.56;96321.30;126876;1092;62651;-57
2021/08/05 10:55:09;;;;;;;4.70;4.20;;;;;;;29.33;40.48;96304.84;126930;1092;62726;-58
2021/08/05 10:57:36;;;;;;;5.37;4.07;;;;;;;29.30;40.67;96302.66;127047;1092;62629;-52
2021/08/05 11:00:14;;;;;;;5.40;3.90;;;;;;;29.28;40.63;96294.05;127072;1092;62634;-55
2021/08/05 11:02:42;;;;;;;4.33;3.50;;;;;;;29.29;40.58;96276.82;127098;1092;62595;-54
2021/08/05 11:05:10;;;;;;;5.03;4.00;;;;;;;29.29;40.63;96261.48;126970;1092;62638;-53
2021/08/05 11:07:37;;;;;;;4.73;3.77;;;;;;;29.29;40.72;96255.30;126959;1092;62620;-58
2021/08/05 11:10:26;;;;;;;4.63;4.23;;;;;;;29.28;40.93;96254.48;127007;1092;62713;-52
2021/08/05 11:12:56;;;;;;;4.43;4.03;;;;;;;29.28;41.19;96246.41;126949;1092;62623;-52
2021/08/05 11:15:29;;;;;;;7.77;4.33;;;;;;;29.30;41.02;96248.83;126933;1092;62680;-56
2021/08/05 11:18:18;;;;;;;5.20;4.70;;;;;;;29.32;40.97;96244.83;126976;1092;62585;-58
2021/08/05 11:20:52;;;;;;;4.47;3.90;;;;;;;29.38;41.11;96230.33;126869;1092;62639;-52
2021/08/05 11:23:25;;;;;;;6.00;3.67;;;;;;;29.48;40.71;96226.08;126991;1092;62772;-52
2021/08/05 11:25:52;;;;;;;5.20;3.77;;;;;;;29.58;40.65;96220.78;126851;1092;62617;-56
2021/08/05 11:28:23;;;;;;;5.90;3.60;;;;;;;29.71;40.17;96212.23;127145;1092;62581;-52
2021/08/05 11:30:53;;;;;;;4.60;3.55;;;;;;;29.88;39.65;96215.55;126929;1092;62639;-51